Rio Chiquito, New Mexico
Current Conditions -  °F | °C
As of 9:55 AM on Tuesday 27 Jan 2015 (Local Time) from KSKX Reporting Station
Clear Clear  
Wind Chill: 37°   Ceiling: Unl
Heat Index: 37°   Visibility: 10mi
Dew Point: 25°   Wind: 3mph
Humidity: 60%   Direction: 340°NNW
Pressure: 30.41"   Gusts: NA
Location:  36.0272°N, 105.768°W
Report Text: KSKX 271655Z AUTO 34003KT 10SM CLR 03/M04 A3041 RMK AO1
Loading
Personal Weather Stations






























Interactive Weather Map New forecast layout! Learn more

10-Day Weather Forecast

Advertisements
Track Severe Weather on mobile